sensor_id;sensor_type;location;lat;lon;timestamp;P1;durP1;ratioP1;P2;durP2;ratioP2
29984;SDS011;17387;42.690;23.328;2023-01-16T00:01:26;98.40;;;47.15;;
29984;SDS011;17387;42.690;23.328;2023-01-16T00:03:51;88.53;;;42.47;;
29984;SDS011;17387;42.690;23.328;2023-01-16T00:06:16;93.03;;;44.22;;
29984;SDS011;17387;42.690;23.328;2023-01-16T00:08:42;96.20;;;45.78;;
29984;SDS011;17387;42.690;23.328;2023-01-16T00:11:08;94.45;;;43.97;;
29984;SDS011;17387;42.690;23.328;2023-01-16T00:13:33;89.80;;;42.50;;
29984;SDS011;17387;42.690;23.328;2023-01-16T00:15:58;91.47;;;43.42;;
29984;SDS011;17387;42.690;23.328;2023-01-16T00:18:24;93.60;;;44.60;;
29984;SDS011;17387;42.690;23.328;2023-01-16T00:20:49;97.22;;;43.78;;
29984;SDS011;17387;42.690;23.328;2023-01-16T00:23:14;93.60;;;44.88;;
29984;SDS011;17387;42.690;23.328;2023-01-16T00:25:40;90.93;;;43.20;;
29984;SDS011;17387;42.690;23.328;2023-01-16T00:28:06;96.22;;;43.97;;
29984;SDS011;17387;42.690;23.328;2023-01-16T00:30:31;92.93;;;43.05;;
29984;SDS011;17387;42.690;23.328;2023-01-16T00:32:57;96.80;;;43.28;;
29984;SDS011;17387;42.690;23.328;2023-01-16T00:35:22;86.30;;;41.47;;
29984;SDS011;17387;42.690;23.328;2023-01-16T00:37:47;95.32;;;43.33;;
29984;SDS011;17387;42.690;23.328;2023-01-16T00:40:12;94.50;;;41.63;;
29984;SDS011;17387;42.690;23.328;2023-01-16T00:42:38;93.57;;;44.92;;
29984;SDS011;17387;42.690;23.328;2023-01-16T00:45:03;99.30;;;44.80;;
29984;SDS011;17387;42.690;23.328;2023-01-16T00:47:28;84.90;;;42.08;;
29984;SDS011;17387;42.690;23.328;2023-01-16T00:49:54;87.55;;;42.47;;
29984;SDS011;17387;42.690;23.328;2023-01-16T00:52:19;92.10;;;40.92;;
29984;SDS011;17387;42.690;23.328;2023-01-16T00:54:44;84.60;;;40.70;;
29984;SDS011;17387;42.690;23.328;2023-01-16T00:57:09;79.03;;;37.97;;
29984;SDS011;17387;42.690;23.328;2023-01-16T00:59:35;80.90;;;38.95;;
29984;SDS011;17387;42.690;23.328;2023-01-16T01:02:00;92.88;;;42.72;;
29984;SDS011;17387;42.690;23.328;2023-01-16T01:04:25;90.55;;;40.85;;
29984;SDS011;17387;42.690;23.328;2023-01-16T01:06:52;92.00;;;41.42;;
29984;SDS011;17387;42.690;23.328;2023-01-16T01:09:17;88.20;;;39.65;;
29984;SDS011;17387;42.690;23.328;2023-01-16T01:11:42;89.72;;;39.53;;
29984;SDS011;17387;42.690;23.328;2023-01-16T01:14:08;87.75;;;38.90;;
29984;SDS011;17387;42.690;23.328;2023-01-16T01:16:33;87.15;;;39.42;;
29984;SDS011;17387;42.690;23.328;2023-01-16T01:18:58;84.82;;;38.05;;
29984;SDS011;17387;42.690;23.328;2023-01-16T01:21:23;89.15;;;37.47;;
29984;SDS011;17387;42.690;23.328;2023-01-16T01:23:49;80.10;;;36.15;;
29984;SDS011;17387;42.690;23.328;2023-01-16T01:26:15;80.25;;;36.83;;
29984;SDS011;17387;42.690;23.328;2023-01-16T01:28:41;82.30;;;36.63;;
29984;SDS011;17387;42.690;23.328;2023-01-16T01:31:08;82.88;;;36.08;;
29984;SDS011;17387;42.690;23.328;2023-01-16T01:33:33;85.30;;;37.92;;
29984;SDS011;17387;42.690;23.328;2023-01-16T01:35:59;86.18;;;37.05;;
29984;SDS011;17387;42.690;23.328;2023-01-16T01:38:24;82.85;;;36.30;;
29984;SDS011;17387;42.690;23.328;2023-01-16T01:40:49;81.68;;;37.72;;
29984;SDS011;17387;42.690;23.328;2023-01-16T01:43:15;84.65;;;38.45;;
29984;SDS011;17387;42.690;23.328;2023-01-16T01:45:42;86.22;;;37.85;;
29984;SDS011;17387;42.690;23.328;2023-01-16T01:50:55;81.60;;;37.58;;
29984;SDS011;17387;42.690;23.328;2023-01-16T01:55:50;85.38;;;36.47;;
29984;SDS011;17387;42.690;23.328;2023-01-16T01:58:16;82.43;;;37.45;;
29984;SDS011;17387;42.690;23.328;2023-01-16T02:00:46;79.68;;;36.67;;
29984;SDS011;17387;42.690;23.328;2023-01-16T02:03:15;83.05;;;36.97;;
29984;SDS011;17387;42.690;23.328;2023-01-16T02:05:42;80.63;;;35.78;;
29984;SDS011;17387;42.690;23.328;2023-01-16T02:08:14;76.70;;;35.70;;
29984;SDS011;17387;42.690;23.328;2023-01-16T02:10:42;77.07;;;36.25;;
29984;SDS011;17387;42.690;23.328;2023-01-16T02:13:08;80.15;;;35.72;;
29984;SDS011;17387;42.690;23.328;2023-01-16T02:15:34;81.72;;;37.10;;
29984;SDS011;17387;42.690;23.328;2023-01-16T02:18:00;88.45;;;38.33;;
29984;SDS011;17387;42.690;23.328;2023-01-16T02:21:04;81.82;;;36.10;;
29984;SDS011;17387;42.690;23.328;2023-01-16T02:28:59;81.18;;;35.13;;
29984;SDS011;17387;42.690;23.328;2023-01-16T02:34:16;90.10;;;36.95;;
29984;SDS011;17387;42.690;23.328;2023-01-16T02:44:49;105.82;;;37.67;;
29984;SDS011;17387;42.690;23.328;2023-01-16T02:52:16;95.30;;;37.42;;
29984;SDS011;17387;42.690;23.328;2023-01-16T02:54:46;88.22;;;35.90;;
29984;SDS011;17387;42.690;23.328;2023-01-16T02:57:17;88.10;;;35.60;;
29984;SDS011;17387;42.690;23.328;2023-01-16T02:59:43;91.10;;;35.92;;
29984;SDS011;17387;42.690;23.328;2023-01-16T03:02:08;97.90;;;35.92;;
29984;SDS011;17387;42.690;23.328;2023-01-16T03:07:02;91.63;;;34.58;;
29984;SDS011;17387;42.690;23.328;2023-01-16T03:09:38;94.28;;;35.08;;
29984;SDS011;17387;42.690;23.328;2023-01-16T03:12:09;91.28;;;35.75;;
29984;SDS011;17387;42.690;23.328;2023-01-16T03:14:43;97.78;;;35.38;;
29984;SDS011;17387;42.690;23.328;2023-01-16T03:17:28;93.15;;;34.72;;
29984;SDS011;17387;42.690;23.328;2023-01-16T03:20:22;94.22;;;35.85;;
29984;SDS011;17387;42.690;23.328;2023-01-16T03:22:42;94.88;;;35.03;;
29984;SDS011;17387;42.690;23.328;2023-01-16T03:25:16;98.70;;;36.47;;
29984;SDS011;17387;42.690;23.328;2023-01-16T03:30:31;96.32;;;36.13;;
29984;SDS011;17387;42.690;23.328;2023-01-16T03:36:10;99.40;;;37.55;;
29984;SDS011;17387;42.690;23.328;2023-01-16T03:38:36;100.45;;;38.45;;
29984;SDS011;17387;42.690;23.328;2023-01-16T03:41:02;100.47;;;38.05;;
29984;SDS011;17387;42.690;23.328;2023-01-16T03:43:34;99.75;;;38.30;;
29984;SDS011;17387;42.690;23.328;2023-01-16T03:46:01;114.95;;;39.20;;
29984;SDS011;17387;42.690;23.328;2023-01-16T03:48:34;103.45;;;37.92;;
29984;SDS011;17387;42.690;23.328;2023-01-16T03:51:02;104.18;;;39.20;;
29984;SDS011;17387;42.690;23.328;2023-01-16T03:53:29;102.40;;;38.53;;
29984;SDS011;17387;42.690;23.328;2023-01-16T03:56:01;97.93;;;38.05;;
29984;SDS011;17387;42.690;23.328;2023-01-16T03:58:33;109.50;;;38.67;;
29984;SDS011;17387;42.690;23.328;2023-01-16T04:01:14;111.00;;;40.28;;
29984;SDS011;17387;42.690;23.328;2023-01-16T04:08:49;132.95;;;41.85;;
29984;SDS011;17387;42.690;23.328;2023-01-16T04:11:15;159.85;;;46.00;;
29984;SDS011;17387;42.690;23.328;2023-01-16T04:13:42;185.32;;;48.65;;
29984;SDS011;17387;42.690;23.328;2023-01-16T04:16:09;177.18;;;50.80;;
29984;SDS011;17387;42.690;23.328;2023-01-16T04:18:35;199.68;;;50.40;;
29984;SDS011;17387;42.690;23.328;2023-01-16T04:21:04;186.50;;;50.28;;
29984;SDS011;17387;42.690;23.328;2023-01-16T04:23:30;172.60;;;49.20;;
29984;SDS011;17387;42.690;23.328;2023-01-16T04:25:55;167.20;;;48.55;;
29984;SDS011;17387;42.690;23.328;2023-01-16T04:28:20;150.10;;;44.92;;
29984;SDS011;17387;42.690;23.328;2023-01-16T04:30:45;141.98;;;45.33;;
29984;SDS011;17387;42.690;23.328;2023-01-16T04:33:11;117.95;;;43.88;;
29984;SDS011;17387;42.690;23.328;2023-01-16T04:35:36;127.43;;;44.65;;
29984;SDS011;17387;42.690;23.328;2023-01-16T04:38:02;122.88;;;44.50;;
29984;SDS011;17387;42.690;23.328;2023-01-16T04:40:27;133.98;;;46.13;;
29984;SDS011;17387;42.690;23.328;2023-01-16T04:42:52;118.18;;;45.10;;
29984;SDS011;17387;42.690;23.328;2023-01-16T04:45:19;136.10;;;48.15;;
29984;SDS011;17387;42.690;23.328;2023-01-16T04:47:46;144.18;;;47.53;;
29984;SDS011;17387;42.690;23.328;2023-01-16T04:50:11;127.10;;;44.97;;
29984;SDS011;17387;42.690;23.328;2023-01-16T04:52:37;129.80;;;47.03;;
29984;SDS011;17387;42.690;23.328;2023-01-16T04:55:02;133.77;;;45.80;;
29984;SDS011;17387;42.690;23.328;2023-01-16T04:57:27;127.05;;;47.63;;
29984;SDS011;17387;42.690;23.328;2023-01-16T04:59:52;154.32;;;46.35;;
29984;SDS011;17387;42.690;23.328;2023-01-16T05:02:18;150.40;;;45.00;;
29984;SDS011;17387;42.690;23.328;2023-01-16T05:04:43;135.82;;;43.60;;
29984;SDS011;17387;42.690;23.328;2023-01-16T05:07:08;146.63;;;45.45;;
29984;SDS011;17387;42.690;23.328;2023-01-16T05:09:33;130.30;;;43.25;;
29984;SDS011;17387;42.690;23.328;2023-01-16T05:11:59;126.68;;;41.88;;
29984;SDS011;17387;42.690;23.328;2023-01-16T05:14:24;135.13;;;43.42;;
29984;SDS011;17387;42.690;23.328;2023-01-16T05:16:49;150.50;;;45.17;;
29984;SDS011;17387;42.690;23.328;2023-01-16T05:19:14;133.88;;;44.55;;
29984;SDS011;17387;42.690;23.328;2023-01-16T05:21:40;152.90;;;45.45;;
29984;SDS011;17387;42.690;23.328;2023-01-16T05:24:05;157.80;;;45.75;;
29984;SDS011;17387;42.690;23.328;2023-01-16T05:26:31;134.63;;;45.17;;
29984;SDS011;17387;42.690;23.328;2023-01-16T05:28:56;137.80;;;43.88;;
29984;SDS011;17387;42.690;23.328;2023-01-16T05:31:22;132.25;;;41.55;;
29984;SDS011;17387;42.690;23.328;2023-01-16T05:33:47;138.25;;;44.30;;
29984;SDS011;17387;42.690;23.328;2023-01-16T05:36:13;151.15;;;45.67;;
29984;SDS011;17387;42.690;23.328;2023-01-16T05:38:38;145.73;;;46.78;;
29984;SDS011;17387;42.690;23.328;2023-01-16T05:41:03;143.68;;;45.92;;
29984;SDS011;17387;42.690;23.328;2023-01-16T05:43:29;137.27;;;43.53;;
29984;SDS011;17387;42.690;23.328;2023-01-16T05:45:54;117.07;;;40.40;;
29984;SDS011;17387;42.690;23.328;2023-01-16T05:48:19;134.48;;;42.83;;
29984;SDS011;17387;42.690;23.328;2023-01-16T05:50:45;122.38;;;42.58;;
29984;SDS011;17387;42.690;23.328;2023-01-16T05:53:10;134.15;;;44.05;;
29984;SDS011;17387;42.690;23.328;2023-01-16T05:55:42;134.68;;;43.42;;
29984;SDS011;17387;42.690;23.328;2023-01-16T05:58:08;129.43;;;42.47;;
29984;SDS011;17387;42.690;23.328;2023-01-16T06:00:34;127.75;;;43.05;;
29984;SDS011;17387;42.690;23.328;2023-01-16T06:02:59;138.32;;;43.38;;
29984;SDS011;17387;42.690;23.328;2023-01-16T06:05:24;118.28;;;41.33;;
29984;SDS011;17387;42.690;23.328;2023-01-16T06:07:53;133.68;;;43.55;;
29984;SDS011;17387;42.690;23.328;2023-01-16T06:10:19;138.65;;;44.63;;
29984;SDS011;17387;42.690;23.328;2023-01-16T06:12:45;137.52;;;46.17;;
29984;SDS011;17387;42.690;23.328;2023-01-16T06:15:10;149.95;;;45.63;;
29984;SDS011;17387;42.690;23.328;2023-01-16T06:17:35;130.02;;;45.03;;
29984;SDS011;17387;42.690;23.328;2023-01-16T06:20:00;134.65;;;45.75;;
29984;SDS011;17387;42.690;23.328;2023-01-16T06:22:26;130.63;;;43.35;;
29984;SDS011;17387;42.690;23.328;2023-01-16T06:24:51;126.68;;;42.55;;
29984;SDS011;17387;42.690;23.328;2023-01-16T06:27:16;119.10;;;42.70;;
29984;SDS011;17387;42.690;23.328;2023-01-16T06:29:42;108.50;;;40.42;;
29984;SDS011;17387;42.690;23.328;2023-01-16T06:32:08;120.10;;;42.60;;
29984;SDS011;17387;42.690;23.328;2023-01-16T06:34:33;112.90;;;42.38;;
29984;SDS011;17387;42.690;23.328;2023-01-16T06:36:58;117.28;;;41.83;;
29984;SDS011;17387;42.690;23.328;2023-01-16T06:39:24;122.22;;;41.88;;
29984;SDS011;17387;42.690;23.328;2023-01-16T06:41:49;119.13;;;41.63;;
29984;SDS011;17387;42.690;23.328;2023-01-16T06:44:14;116.25;;;42.60;;
29984;SDS011;17387;42.690;23.328;2023-01-16T06:46:39;115.45;;;43.25;;
29984;SDS011;17387;42.690;23.328;2023-01-16T06:49:05;108.35;;;42.53;;
29984;SDS011;17387;42.690;23.328;2023-01-16T06:51:30;115.60;;;43.25;;
29984;SDS011;17387;42.690;23.328;2023-01-16T06:53:55;117.88;;;41.85;;
29984;SDS011;17387;42.690;23.328;2023-01-16T06:56:20;129.80;;;46.17;;
29984;SDS011;17387;42.690;23.328;2023-01-16T06:58:46;96.45;;;39.65;;
29984;SDS011;17387;42.690;23.328;2023-01-16T07:01:11;99.90;;;39.85;;
29984;SDS011;17387;42.690;23.328;2023-01-16T07:03:36;93.50;;;38.83;;
29984;SDS011;17387;42.690;23.328;2023-01-16T07:06:02;94.50;;;37.15;;
29984;SDS011;17387;42.690;23.328;2023-01-16T07:08:27;96.90;;;39.55;;
29984;SDS011;17387;42.690;23.328;2023-01-16T07:10:53;90.18;;;38.13;;
29984;SDS011;17387;42.690;23.328;2023-01-16T07:13:18;94.55;;;38.42;;
29984;SDS011;17387;42.690;23.328;2023-01-16T07:15:48;92.07;;;38.35;;
29984;SDS011;17387;42.690;23.328;2023-01-16T07:18:32;89.72;;;39.70;;
29984;SDS011;17387;42.690;23.328;2023-01-16T07:21:16;100.72;;;41.13;;
29984;SDS011;17387;42.690;23.328;2023-01-16T07:24:05;96.53;;;40.97;;
29984;SDS011;17387;42.690;23.328;2023-01-16T07:26:32;96.88;;;39.53;;
29984;SDS011;17387;42.690;23.328;2023-01-16T07:28:57;87.93;;;38.42;;
29984;SDS011;17387;42.690;23.328;2023-01-16T07:31:23;86.32;;;37.63;;
29984;SDS011;17387;42.690;23.328;2023-01-16T07:33:48;87.15;;;38.10;;
29984;SDS011;17387;42.690;23.328;2023-01-16T07:36:14;89.40;;;38.92;;
29984;SDS011;17387;42.690;23.328;2023-01-16T07:38:39;89.22;;;39.47;;
29984;SDS011;17387;42.690;23.328;2023-01-16T07:41:04;94.47;;;40.78;;
29984;SDS011;17387;42.690;23.328;2023-01-16T07:43:30;88.78;;;38.42;;
29984;SDS011;17387;42.690;23.328;2023-01-16T07:45:55;94.60;;;38.83;;
29984;SDS011;17387;42.690;23.328;2023-01-16T07:48:23;97.40;;;40.85;;
29984;SDS011;17387;42.690;23.328;2023-01-16T07:50:52;87.13;;;38.45;;
29984;SDS011;17387;42.690;23.328;2023-01-16T07:53:18;88.25;;;39.08;;
29984;SDS011;17387;42.690;23.328;2023-01-16T07:55:46;89.72;;;38.72;;
29984;SDS011;17387;42.690;23.328;2023-01-16T07:58:12;89.85;;;38.40;;
29984;SDS011;17387;42.690;23.328;2023-01-16T08:00:37;94.97;;;38.47;;
29984;SDS011;17387;42.690;23.328;2023-01-16T08:03:02;91.28;;;39.85;;
29984;SDS011;17387;42.690;23.328;2023-01-16T08:05:27;87.57;;;38.60;;
29984;SDS011;17387;42.690;23.328;2023-01-16T08:07:53;96.40;;;40.53;;
29984;SDS011;17387;42.690;23.328;2023-01-16T08:10:18;88.97;;;37.63;;
29984;SDS011;17387;42.690;23.328;2023-01-16T08:12:43;98.20;;;39.28;;
29984;SDS011;17387;42.690;23.328;2023-01-16T08:15:09;94.55;;;40.05;;
29984;SDS011;17387;42.690;23.328;2023-01-16T08:17:35;92.82;;;38.60;;
29984;SDS011;17387;42.690;23.328;2023-01-16T08:20:02;108.45;;;45.55;;
29984;SDS011;17387;42.690;23.328;2023-01-16T08:22:27;116.68;;;49.95;;
29984;SDS011;17387;42.690;23.328;2023-01-16T08:24:53;108.60;;;47.17;;
29984;SDS011;17387;42.690;23.328;2023-01-16T08:27:18;122.13;;;50.20;;
29984;SDS011;17387;42.690;23.328;2023-01-16T08:29:43;118.38;;;49.97;;
29984;SDS011;17387;42.690;23.328;2023-01-16T08:32:09;131.68;;;51.65;;
29984;SDS011;17387;42.690;23.328;2023-01-16T08:34:34;135.77;;;55.00;;
29984;SDS011;17387;42.690;23.328;2023-01-16T08:37:00;138.45;;;56.97;;
29984;SDS011;17387;42.690;23.328;2023-01-16T08:39:27;140.95;;;58.92;;
29984;SDS011;17387;42.690;23.328;2023-01-16T08:41:53;129.45;;;53.90;;
29984;SDS011;17387;42.690;23.328;2023-01-16T08:44:36;157.20;;;62.63;;
29984;SDS011;17387;42.690;23.328;2023-01-16T08:47:22;147.40;;;62.05;;
29984;SDS011;17387;42.690;23.328;2023-01-16T08:50:09;153.27;;;61.63;;
29984;SDS011;17387;42.690;23.328;2023-01-16T08:53:11;164.45;;;64.22;;
29984;SDS011;17387;42.690;23.328;2023-01-16T08:55:36;145.88;;;60.08;;
29984;SDS011;17387;42.690;23.328;2023-01-16T08:58:01;142.18;;;57.90;;
29984;SDS011;17387;42.690;23.328;2023-01-16T09:00:27;133.50;;;55.08;;
29984;SDS011;17387;42.690;23.328;2023-01-16T09:02:52;114.30;;;51.00;;
29984;SDS011;17387;42.690;23.328;2023-01-16T09:05:18;117.72;;;50.03;;
29984;SDS011;17387;42.690;23.328;2023-01-16T09:07:44;88.82;;;39.45;;
29984;SDS011;17387;42.690;23.328;2023-01-16T09:10:09;90.82;;;40.65;;
29984;SDS011;17387;42.690;23.328;2023-01-16T09:12:35;86.45;;;39.15;;
29984;SDS011;17387;42.690;23.328;2023-01-16T09:15:18;99.63;;;43.50;;
29984;SDS011;17387;42.690;23.328;2023-01-16T09:17:44;103.22;;;44.38;;
29984;SDS011;17387;42.690;23.328;2023-01-16T09:20:09;99.63;;;43.63;;
29984;SDS011;17387;42.690;23.328;2023-01-16T09:22:35;101.43;;;44.25;;
29984;SDS011;17387;42.690;23.328;2023-01-16T09:25:00;84.25;;;39.63;;
29984;SDS011;17387;42.690;23.328;2023-01-16T09:27:25;85.93;;;39.35;;
29984;SDS011;17387;42.690;23.328;2023-01-16T09:29:51;79.60;;;37.35;;
29984;SDS011;17387;42.690;23.328;2023-01-16T09:32:16;90.13;;;38.78;;
29984;SDS011;17387;42.690;23.328;2023-01-16T09:34:43;80.95;;;37.35;;
29984;SDS011;17387;42.690;23.328;2023-01-16T09:37:08;76.13;;;36.15;;
29984;SDS011;17387;42.690;23.328;2023-01-16T09:39:34;64.95;;;32.38;;
29984;SDS011;17387;42.690;23.328;2023-01-16T09:44:52;71.63;;;31.95;;
29984;SDS011;17387;42.690;23.328;2023-01-16T09:47:20;66.53;;;31.13;;
29984;SDS011;17387;42.690;23.328;2023-01-16T09:49:49;66.55;;;31.25;;
29984;SDS011;17387;42.690;23.328;2023-01-16T09:52:16;63.40;;;31.35;;
29984;SDS011;17387;42.690;23.328;2023-01-16T09:55:06;63.13;;;30.60;;
29984;SDS011;17387;42.690;23.328;2023-01-16T09:57:54;60.65;;;29.63;;
29984;SDS011;17387;42.690;23.328;2023-01-16T10:00:39;62.25;;;31.02;;
29984;SDS011;17387;42.690;23.328;2023-01-16T10:03:04;67.78;;;33.08;;
29984;SDS011;17387;42.690;23.328;2023-01-16T10:05:49;62.92;;;30.27;;
29984;SDS011;17387;42.690;23.328;2023-01-16T10:08:19;66.10;;;30.70;;
29984;SDS011;17387;42.690;23.328;2023-01-16T10:13:46;71.10;;;32.72;;
29984;SDS011;17387;42.690;23.328;2023-01-16T10:21:47;69.03;;;32.40;;
29984;SDS011;17387;42.690;23.328;2023-01-16T10:32:17;57.60;;;29.17;;
29984;SDS011;17387;42.690;23.328;2023-01-16T10:37:15;53.13;;;27.77;;
29984;SDS011;17387;42.690;23.328;2023-01-16T10:39:40;56.22;;;27.92;;
29984;SDS011;17387;42.690;23.328;2023-01-16T10:44:58;55.72;;;28.50;;
29984;SDS011;17387;42.690;23.328;2023-01-16T10:47:44;55.95;;;30.17;;
29984;SDS011;17387;42.690;23.328;2023-01-16T10:50:28;96.25;;;47.47;;
29984;SDS011;17387;42.690;23.328;2023-01-16T10:52:54;59.40;;;31.77;;
29984;SDS011;17387;42.690;23.328;2023-01-16T10:55:19;61.53;;;30.55;;
29984;SDS011;17387;42.690;23.328;2023-01-16T10:57:55;61.78;;;31.42;;
29984;SDS011;17387;42.690;23.328;2023-01-16T11:00:20;59.67;;;31.13;;
29984;SDS011;17387;42.690;23.328;2023-01-16T11:02:50;62.38;;;31.02;;
29984;SDS011;17387;42.690;23.328;2023-01-16T11:05:23;60.28;;;32.53;;
29984;SDS011;17387;42.690;23.328;2023-01-16T11:07:48;71.55;;;34.97;;
29984;SDS011;17387;42.690;23.328;2023-01-16T11:10:16;57.85;;;30.67;;
29984;SDS011;17387;42.690;23.328;2023-01-16T11:12:42;67.35;;;33.55;;
29984;SDS011;17387;42.690;23.328;2023-01-16T11:15:25;61.00;;;30.35;;
29984;SDS011;17387;42.690;23.328;2023-01-16T11:18:30;59.30;;;28.60;;
29984;SDS011;17387;42.690;23.328;2023-01-16T11:20:56;51.75;;;27.70;;
29984;SDS011;17387;42.690;23.328;2023-01-16T11:23:24;52.17;;;27.55;;
29984;SDS011;17387;42.690;23.328;2023-01-16T11:25:51;60.25;;;29.48;;
29984;SDS011;17387;42.690;23.328;2023-01-16T11:28:18;55.15;;;27.67;;
29984;SDS011;17387;42.690;23.328;2023-01-16T11:30:45;60.97;;;30.20;;
29984;SDS011;17387;42.690;23.328;2023-01-16T11:33:15;50.58;;;26.58;;
29984;SDS011;17387;42.690;23.328;2023-01-16T11:35:42;52.22;;;26.15;;
29984;SDS011;17387;42.690;23.328;2023-01-16T11:38:12;51.65;;;28.23;;
29984;SDS011;17387;42.690;23.328;2023-01-16T11:40:43;51.53;;;26.45;;
29984;SDS011;17387;42.690;23.328;2023-01-16T11:43:13;60.10;;;28.55;;
29984;SDS011;17387;42.690;23.328;2023-01-16T11:45:57;55.28;;;28.90;;
29984;SDS011;17387;42.690;23.328;2023-01-16T11:48:39;46.45;;;25.63;;
29984;SDS011;17387;42.690;23.328;2023-01-16T11:51:06;47.88;;;24.77;;
29984;SDS011;17387;42.690;23.328;2023-01-16T11:53:32;49.05;;;26.52;;
29984;SDS011;17387;42.690;23.328;2023-01-16T11:58:32;48.50;;;25.48;;
29984;SDS011;17387;42.690;23.328;2023-01-16T12:01:04;49.70;;;27.05;;
29984;SDS011;17387;42.690;23.328;2023-01-16T12:06:06;47.20;;;25.55;;
29984;SDS011;17387;42.690;23.328;2023-01-16T12:11:07;51.67;;;25.98;;
29984;SDS011;17387;42.690;23.328;2023-01-16T12:16:40;41.17;;;21.60;;
29984;SDS011;17387;42.690;23.328;2023-01-16T12:19:17;47.92;;;24.83;;
29984;SDS011;17387;42.690;23.328;2023-01-16T12:21:46;43.58;;;22.05;;
29984;SDS011;17387;42.690;23.328;2023-01-16T12:26:42;46.40;;;23.77;;
29984;SDS011;17387;42.690;23.328;2023-01-16T12:31:54;47.28;;;24.42;;
29984;SDS011;17387;42.690;23.328;2023-01-16T12:41:53;44.15;;;22.98;;
29984;SDS011;17387;42.690;23.328;2023-01-16T12:52:12;38.80;;;21.13;;
29984;SDS011;17387;42.690;23.328;2023-01-16T12:54:53;36.53;;;20.65;;
29984;SDS011;17387;42.690;23.328;2023-01-16T12:59:56;41.42;;;20.88;;
29984;SDS011;17387;42.690;23.328;2023-01-16T13:05:18;35.75;;;18.42;;
29984;SDS011;17387;42.690;23.328;2023-01-16T13:07:49;35.25;;;19.33;;
29984;SDS011;17387;42.690;23.328;2023-01-16T13:13:00;30.52;;;17.73;;
29984;SDS011;17387;42.690;23.328;2023-01-16T13:15:45;30.40;;;17.52;;
29984;SDS011;17387;42.690;23.328;2023-01-16T13:20:43;36.20;;;20.02;;
29984;SDS011;17387;42.690;23.328;2023-01-16T13:23:20;38.63;;;19.83;;
29984;SDS011;17387;42.690;23.328;2023-01-16T13:25:47;39.97;;;21.13;;
29984;SDS011;17387;42.690;23.328;2023-01-16T13:30:41;34.42;;;18.45;;
29984;SDS011;17387;42.690;23.328;2023-01-16T13:33:10;34.90;;;18.73;;
29984;SDS011;17387;42.690;23.328;2023-01-16T13:43:19;36.63;;;19.45;;
29984;SDS011;17387;42.690;23.328;2023-01-16T13:46:05;36.55;;;19.67;;
29984;SDS011;17387;42.690;23.328;2023-01-16T13:48:31;32.58;;;18.70;;
29984;SDS011;17387;42.690;23.328;2023-01-16T13:50:58;43.03;;;25.35;;
29984;SDS011;17387;42.690;23.328;2023-01-16T13:53:24;36.65;;;19.25;;
29984;SDS011;17387;42.690;23.328;2023-01-16T13:55:49;39.15;;;21.35;;
29984;SDS011;17387;42.690;23.328;2023-01-16T13:58:22;43.28;;;22.30;;
29984;SDS011;17387;42.690;23.328;2023-01-16T14:00:57;36.65;;;19.33;;
29984;SDS011;17387;42.690;23.328;2023-01-16T14:03:24;38.42;;;20.83;;
29984;SDS011;17387;42.690;23.328;2023-01-16T14:13:40;36.05;;;20.33;;
29984;SDS011;17387;42.690;23.328;2023-01-16T14:21:39;43.67;;;21.15;;
29984;SDS011;17387;42.690;23.328;2023-01-16T14:24:07;36.50;;;19.48;;
29984;SDS011;17387;42.690;23.328;2023-01-16T14:29:16;37.92;;;19.80;;
29984;SDS011;17387;42.690;23.328;2023-01-16T14:34:28;36.00;;;18.88;;
29984;SDS011;17387;42.690;23.328;2023-01-16T14:37:11;39.35;;;20.58;;
29984;SDS011;17387;42.690;23.328;2023-01-16T14:39:38;34.45;;;18.98;;
29984;SDS011;17387;42.690;23.328;2023-01-16T14:42:14;38.60;;;20.55;;
29984;SDS011;17387;42.690;23.328;2023-01-16T14:51:01;43.33;;;22.58;;
29984;SDS011;17387;42.690;23.328;2023-01-16T14:56:40;38.70;;;21.25;;
29984;SDS011;17387;42.690;23.328;2023-01-16T15:02:08;42.83;;;23.20;;
29984;SDS011;17387;42.690;23.328;2023-01-16T15:04:57;45.10;;;24.17;;
29984;SDS011;17387;42.690;23.328;2023-01-16T15:07:30;42.25;;;23.55;;
29984;SDS011;17387;42.690;23.328;2023-01-16T15:09:58;40.70;;;22.40;;
29984;SDS011;17387;42.690;23.328;2023-01-16T15:12:34;47.72;;;23.42;;
29984;SDS011;17387;42.690;23.328;2023-01-16T15:15:00;46.17;;;24.50;;
29984;SDS011;17387;42.690;23.328;2023-01-16T15:17:28;46.10;;;22.25;;
29984;SDS011;17387;42.690;23.328;2023-01-16T15:20:24;47.55;;;25.33;;
29984;SDS011;17387;42.690;23.328;2023-01-16T15:23:18;45.97;;;24.40;;
29984;SDS011;17387;42.690;23.328;2023-01-16T15:30:49;49.30;;;25.80;;
29984;SDS011;17387;42.690;23.328;2023-01-16T15:33:28;50.03;;;25.27;;
29984;SDS011;17387;42.690;23.328;2023-01-16T15:39:18;47.40;;;24.38;;
29984;SDS011;17387;42.690;23.328;2023-01-16T15:41:47;44.00;;;23.77;;
29984;SDS011;17387;42.690;23.328;2023-01-16T15:44:31;49.45;;;26.00;;
29984;SDS011;17387;42.690;23.328;2023-01-16T15:47:23;54.97;;;28.35;;
29984;SDS011;17387;42.690;23.328;2023-01-16T15:50:07;61.88;;;31.52;;
29984;SDS011;17387;42.690;23.328;2023-01-16T15:52:34;52.28;;;27.27;;
29984;SDS011;17387;42.690;23.328;2023-01-16T15:55:16;50.47;;;26.70;;
29984;SDS011;17387;42.690;23.328;2023-01-16T15:57:46;52.13;;;26.45;;
29984;SDS011;17387;42.690;23.328;2023-01-16T16:03:19;56.67;;;28.83;;
29984;SDS011;17387;42.690;23.328;2023-01-16T16:05:52;52.60;;;27.15;;
29984;SDS011;17387;42.690;23.328;2023-01-16T16:08:19;51.70;;;27.73;;
29984;SDS011;17387;42.690;23.328;2023-01-16T16:10:45;57.88;;;30.45;;
29984;SDS011;17387;42.690;23.328;2023-01-16T16:13:29;57.67;;;29.10;;
29984;SDS011;17387;42.690;23.328;2023-01-16T16:15:56;55.95;;;29.05;;
29984;SDS011;17387;42.690;23.328;2023-01-16T16:18:50;56.65;;;30.10;;
29984;SDS011;17387;42.690;23.328;2023-01-16T16:21:15;55.20;;;29.00;;
29984;SDS011;17387;42.690;23.328;2023-01-16T16:23:42;54.80;;;29.05;;
29984;SDS011;17387;42.690;23.328;2023-01-16T16:26:10;56.40;;;29.10;;
29984;SDS011;17387;42.690;23.328;2023-01-16T16:28:36;55.08;;;28.10;;
29984;SDS011;17387;42.690;23.328;2023-01-16T16:33:30;57.03;;;30.00;;
29984;SDS011;17387;42.690;23.328;2023-01-16T16:35:58;54.75;;;29.23;;
29984;SDS011;17387;42.690;23.328;2023-01-16T16:38:24;54.58;;;29.05;;
29984;SDS011;17387;42.690;23.328;2023-01-16T16:43:43;54.13;;;28.85;;
29984;SDS011;17387;42.690;23.328;2023-01-16T16:46:30;55.95;;;27.63;;
29984;SDS011;17387;42.690;23.328;2023-01-16T16:49:25;52.80;;;26.23;;
29984;SDS011;17387;42.690;23.328;2023-01-16T16:51:43;55.70;;;28.63;;
29984;SDS011;17387;42.690;23.328;2023-01-16T16:54:14;51.72;;;26.10;;
29984;SDS011;17387;42.690;23.328;2023-01-16T16:59:15;54.85;;;26.02;;
29984;SDS011;17387;42.690;23.328;2023-01-16T17:01:41;65.65;;;36.03;;
29984;SDS011;17387;42.690;23.328;2023-01-16T17:04:10;55.00;;;29.67;;